createdAt,value
2023-03-27T10:00:40.922Z,8.0143
2023-03-27T10:01:42.340Z,11.0923
2023-03-27T10:02:43.814Z,12.9385
2023-03-27T10:03:45.206Z,13.1538
2023-03-27T10:04:46.613Z,13.3231
2023-03-27T10:05:48.092Z,14.6308
2023-03-27T10:06:49.461Z,13.2769
2023-03-27T10:07:50.904Z,13.7692
2023-03-27T10:08:52.340Z,15.4462
2023-03-27T10:09:53.757Z,14.4308
2023-03-27T10:10:55.401Z,14.3538
2023-03-27T10:11:56.631Z,16.0154
2023-03-27T10:12:58.095Z,15.7692
2023-03-27T10:13:59.501Z,16.5231
2023-03-27T10:15:01.722Z,17.4769
2023-03-27T10:16:02.406Z,18.6000
2023-03-27T10:17:03.852Z,17.9538
2023-03-27T10:18:05.223Z,16.9077
2023-03-27T10:19:06.646Z,16.7846
2023-03-27T10:20:08.088Z,15.1692
2023-03-27T10:21:09.511Z,13.4923
2023-03-27T10:22:14.326Z,12.2308
2023-03-27T10:23:12.437Z,13.0462
2023-03-27T10:24:13.822Z,14.4154
2023-03-27T10:25:15.284Z,13.4462
2023-03-27T10:26:16.686Z,14.4615
2023-03-27T10:27:18.113Z,13.9385
2023-03-27T10:28:19.561Z,13.7077
2023-03-27T10:29:21.023Z,14.7385
2023-03-27T10:30:22.413Z,15.0769
2023-03-27T10:31:23.967Z,15.5538
2023-03-27T10:32:25.321Z,16.4769
2023-03-27T10:33:27.393Z,16.8769
2023-03-27T10:34:28.471Z,17.4154
2023-03-27T10:35:29.589Z,17.1200
2023-03-27T10:36:31.022Z,17.7692
2023-03-27T10:37:32.488Z,16.1231
2023-03-27T10:38:33.939Z,15.0615
2023-03-27T10:39:35.321Z,14.7538
2023-03-27T10:40:36.759Z,10.5692
2023-03-27T10:41:38.216Z,10.5692
2023-03-27T10:42:39.642Z,12.3231
2023-03-27T10:43:41.064Z,13.2769
2023-03-27T10:44:42.493Z,13.3846
2023-03-27T10:45:43.984Z,14.7538
2023-03-27T10:46:45.419Z,13.6769
2023-03-27T10:47:46.811Z,13.6923
2023-03-27T10:48:48.247Z,14.6615
2023-03-27T10:49:49.649Z,15.4769
2023-03-27T10:50:51.135Z,15.2923
2023-03-27T10:51:52.538Z,16.3538
2023-03-27T10:52:53.984Z,17.1846
2023-03-27T10:53:55.456Z,17.0769
2023-03-27T10:54:56.829Z,17.4769
2023-03-27T10:55:58.316Z,19.0000
2023-03-27T10:56:59.804Z,17.4923
2023-03-27T10:58:01.142Z,18.3692
2023-03-27T10:59:02.573Z,16.5385
2023-03-27T11:00:04.006Z,16.1538
2023-03-27T11:01:05.547Z,16.2615
2023-03-27T11:02:08.733Z,16.4615
2023-03-27T11:03:08.385Z,15.3846
2023-03-27T11:04:09.746Z,15.5538
2023-03-27T11:05:11.177Z,17.6769
2023-03-27T11:06:12.605Z,16.0462
2023-03-27T11:07:16.241Z,14.9692
2023-03-27T11:08:15.480Z,16.5385
2023-03-27T11:09:16.910Z,16.0462
2023-03-27T11:10:18.338Z,18.5846
2023-03-27T11:11:19.765Z,17.8154
2023-03-27T11:12:21.199Z,16.5846
2023-03-27T11:13:22.640Z,16.4308
2023-03-27T11:14:24.059Z,16.7538
2023-03-27T11:15:25.494Z,16.7231
2023-03-27T11:16:26.963Z,16.6000
2023-03-27T11:17:28.909Z,18.6923
2023-03-27T11:18:29.798Z,15.9846
2023-03-27T11:19:31.283Z,15.0769
2023-03-27T11:20:32.661Z,6.6462
2023-03-27T11:21:34.107Z,2.6769
2023-03-27T11:22:35.541Z,1.9692
2023-03-27T11:23:36.992Z,1.8000
2023-03-27T11:24:38.395Z,1.8000
2023-03-27T11:25:39.841Z,2.0154
2023-03-27T11:26:41.299Z,3.2615
2023-03-27T11:27:42.704Z,10.8769
2023-03-27T11:28:44.134Z,19.2154
2023-03-27T11:29:45.595Z,24.0923
2023-03-27T11:30:47.041Z,27.5385
2023-03-27T11:31:48.553Z,28.7846
2023-03-27T11:32:49.972Z,23.8462
2023-03-27T11:33:51.335Z,22.4154
2023-03-27T11:34:52.733Z,19.3538
2023-03-27T11:35:54.178Z,17.0769
2023-03-27T11:36:55.611Z,15.4923
2023-03-27T11:37:57.043Z,16.8923
2023-03-27T11:38:58.478Z,16.4462
2023-03-27T11:39:59.893Z,15.7846
2023-03-27T11:41:01.334Z,15.2769
2023-03-27T11:42:02.790Z,16.4000
2023-03-27T11:43:04.198Z,16.2615
2023-03-27T11:44:05.625Z,15.1692
2023-03-27T11:45:07.073Z,14.6462
2023-03-27T11:46:08.564Z,14.4462
2023-03-27T11:47:09.920Z,13.9385
2023-03-27T11:48:11.420Z,13.2308
2023-03-27T11:49:12.771Z,15.3385
2023-03-27T11:50:14.221Z,14.7385
2023-03-27T11:51:15.672Z,14.7385
2023-03-27T11:52:17.081Z,15.4308
2023-03-27T11:53:18.503Z,14.6923
2023-03-27T11:54:19.947Z,15.0000
2023-03-27T11:55:21.388Z,15.3385
2023-03-27T11:56:22.817Z,15.3077
2023-03-27T11:57:24.229Z,14.1077
2023-03-27T11:58:25.669Z,14.3846
2023-03-27T11:59:27.088Z,14.7846
2023-03-27T12:00:28.529Z,13.8769
2023-03-27T12:01:30.003Z,12.1692
2023-03-27T12:02:31.566Z,13.3538
2023-03-27T12:03:32.914Z,12.6154
2023-03-27T12:04:34.254Z,12.8308
2023-03-27T12:05:35.702Z,13.9231
2023-03-27T12:06:37.121Z,14.2154
2023-03-27T12:07:40.555Z,14.1692
2023-03-27T12:08:39.983Z,13.9167
2023-03-27T12:09:41.398Z,13.7692
2023-03-27T12:10:42.867Z,14.5846
2023-03-27T12:11:44.277Z,13.7385
2023-03-27T12:12:45.705Z,13.9077
2023-03-27T12:14:48.569Z,14.1538
2023-03-27T12:15:50.007Z,14.2308
2023-03-27T12:16:51.546Z,14.2308
2023-03-27T12:17:52.925Z,14.5231
2023-03-27T12:19:03.847Z,14.6615
2023-03-27T12:19:55.737Z,14.4667
2023-03-27T12:20:57.190Z,14.4000
2023-03-27T12:21:58.626Z,13.6923
2023-03-27T12:23:00.038Z,13.6308
2023-03-27T12:24:01.460Z,13.8923
2023-03-27T12:25:02.904Z,13.6769
2023-03-27T12:26:04.360Z,14.8154
2023-03-27T12:27:05.785Z,14.7538
2023-03-27T12:28:07.205Z,13.1538
2023-03-27T12:29:23.143Z,13.8667
2023-03-27T12:30:10.070Z,14.4500
2023-03-27T12:31:11.507Z,15.0154
2023-03-27T12:32:12.983Z,14.0769
2023-03-27T12:33:14.422Z,14.6308
2023-03-27T12:34:15.802Z,14.4923
2023-03-27T12:35:21.340Z,14.3692
2023-03-27T12:36:18.660Z,14.6154
2023-03-27T12:37:20.105Z,14.2000
2023-03-27T12:38:21.539Z,14.2462
2023-03-27T12:39:22.960Z,14.5231
2023-03-27T12:40:24.425Z,14.7385
2023-03-27T12:41:25.861Z,14.3692
2023-03-27T12:42:27.386Z,14.5846
2023-03-27T12:43:28.714Z,14.9077
2023-03-27T12:44:30.153Z,14.9692
2023-03-27T12:45:34.565Z,12.0462
2023-03-27T12:46:33.055Z,12.3077
2023-03-27T12:47:34.480Z,12.5077
2023-03-27T12:48:35.882Z,12.2462
2023-03-27T12:49:47.002Z,12.9846
2023-03-27T12:50:38.747Z,13.2667
2023-03-27T12:51:40.237Z,11.5385
2023-03-27T12:52:41.653Z,11.1692
2023-03-27T12:53:43.074Z,9.7385
2023-03-27T12:54:44.508Z,10.5385
2023-03-27T12:55:45.945Z,11.8615
2023-03-27T12:56:47.448Z,12.1077
2023-03-27T12:57:48.919Z,9.8308
2023-03-27T12:58:50.234Z,9.3385
2023-03-27T12:59:51.685Z,9.8000
2023-03-27T13:00:53.113Z,10.8462
2023-03-27T13:01:54.570Z,12.4923
2023-03-27T13:02:56.046Z,11.7231
2023-03-27T13:03:57.589Z,10.7385
2023-03-27T13:04:58.878Z,12.3846
2023-03-27T13:06:00.311Z,10.8615
2023-03-27T13:07:01.723Z,12.5077
2023-03-27T13:08:03.163Z,13.0615
2023-03-27T13:09:04.594Z,13.9385
2023-03-27T13:10:06.066Z,14.7538
2023-03-27T13:11:07.447Z,15.8308
2023-03-27T13:12:08.913Z,16.3077
2023-03-27T13:13:10.325Z,10.2462
2023-03-27T13:14:11.745Z,4.7231
2023-03-27T13:15:13.190Z,2.5538
2023-03-27T13:16:14.641Z,4.2923
2023-03-27T13:17:16.059Z,10.5231
2023-03-27T13:18:17.481Z,13.9231
2023-03-27T13:19:18.904Z,16.2769
2023-03-27T13:20:20.358Z,18.5385
2023-03-27T13:21:21.764Z,19.5846
2023-03-27T13:22:23.239Z,17.3231
2023-03-27T13:23:24.630Z,16.1538
2023-03-27T13:24:26.085Z,16.4769
2023-03-27T13:25:27.524Z,16.7231
2023-03-27T13:26:28.949Z,16.3231
2023-03-27T13:27:30.375Z,14.6923
2023-03-27T13:28:31.848Z,16.2154
2023-03-27T13:29:33.229Z,16.5385
2023-03-27T13:30:34.691Z,15.7077
2023-03-27T13:31:36.161Z,16.0615
2023-03-27T13:32:37.580Z,17.5692
2023-03-27T13:33:39.012Z,19.6154
2023-03-27T13:34:40.425Z,20.7385
2023-03-27T13:35:41.860Z,22.1077
2023-03-27T13:36:43.304Z,19.3077
2023-03-27T13:37:44.726Z,17.5385
2023-03-27T13:38:46.152Z,15.8769
2023-03-27T13:39:47.589Z,14.9538
2023-03-27T13:40:48.996Z,16.4308
2023-03-27T13:41:50.431Z,14.2769
2023-03-27T13:42:51.871Z,14.5385
2023-03-27T13:43:53.318Z,10.3231
2023-03-27T13:44:54.738Z,12.7692
2023-03-27T13:45:56.249Z,11.5538
2023-03-27T13:46:57.740Z,8.2154
2023-03-27T13:47:59.029Z,8.0000
2023-03-27T13:49:00.454Z,9.4308
2023-03-27T13:50:01.910Z,8.9538
2023-03-27T13:51:03.317Z,8.0769
2023-03-27T13:52:04.768Z,9.2000
2023-03-27T13:53:06.192Z,9.9385
2023-03-27T13:54:07.609Z,8.9692
2023-03-27T13:55:09.041Z,8.6154
2023-03-27T13:56:10.497Z,7.8462
2023-03-27T13:57:11.898Z,7.8462
2023-03-27T13:58:13.345Z,7.8769
2023-03-27T13:59:14.754Z,8.0154
2023-03-27T14:00:16.228Z,8.2000
2023-03-27T14:01:17.776Z,8.1231
2023-03-27T14:02:19.223Z,7.8000
2023-03-27T14:03:20.657Z,8.2000
2023-03-27T14:04:22.029Z,8.0923
2023-03-27T14:05:23.456Z,8.4462
2023-03-27T14:06:24.942Z,7.5538
2023-03-27T14:07:26.342Z,9.1538
2023-03-27T14:08:27.766Z,8.5231
2023-03-27T14:09:29.195Z,8.3538
2023-03-27T14:10:30.668Z,8.9538
2023-03-27T14:11:32.043Z,9.6769
2023-03-27T14:12:33.529Z,10.9692
2023-03-27T14:13:34.925Z,11.8923
2023-03-27T14:14:36.359Z,13.1846
2023-03-27T14:15:37.804Z,13.5538
2023-03-27T14:16:39.305Z,14.0769
2023-03-27T14:17:40.705Z,13.3692
2023-03-27T14:18:42.083Z,13.4308
2023-03-27T14:19:43.584Z,13.4000
2023-03-27T14:20:44.947Z,13.8462
2023-03-27T14:21:46.383Z,14.8462
2023-03-27T14:22:47.826Z,13.6308
2023-03-27T14:23:49.290Z,9.9231
2023-03-27T14:24:50.681Z,10.6000
2023-03-27T14:25:52.092Z,11.0923
2023-03-27T14:26:53.537Z,12.0462
2023-03-27T14:27:54.976Z,12.9385
2023-03-27T14:28:56.405Z,13.3538
2023-03-27T14:29:57.837Z,13.6000
2023-03-27T14:30:59.269Z,13.3846
2023-03-27T14:32:00.770Z,13.2000
2023-03-27T14:33:02.212Z,14.0615
2023-03-27T14:34:03.561Z,13.8154
2023-03-27T14:35:05.017Z,14.3385
2023-03-27T14:36:06.456Z,14.6615
2023-03-27T14:37:07.859Z,14.5846
2023-03-27T14:38:09.333Z,15.4923
2023-03-27T14:39:10.736Z,11.8462
2023-03-27T14:40:12.143Z,12.6769
2023-03-27T14:41:13.607Z,11.3846
2023-03-27T14:42:15.038Z,11.1692
2023-03-27T14:43:16.464Z,13.0308
2023-03-27T14:44:17.891Z,11.8615
2023-03-27T14:45:19.335Z,13.6462
2023-03-27T14:46:20.799Z,12.3231
2023-03-27T14:47:22.201Z,11.8923
2023-03-27T14:48:23.609Z,12.5385
2023-03-27T14:49:25.078Z,13.0308
2023-03-27T14:50:26.485Z,13.2462
2023-03-27T14:51:27.937Z,12.4000
2023-03-27T14:52:29.360Z,13.6308
2023-03-27T14:53:30.809Z,12.7077
2023-03-27T14:54:39.141Z,13.3846
2023-03-27T14:55:33.684Z,13.3167
2023-03-27T14:56:35.140Z,14.1846
2023-03-27T14:57:36.537Z,14.1077
2023-03-27T14:58:37.968Z,13.8000
2023-03-27T14:59:39.410Z,13.8923
2023-03-27T15:00:40.852Z,13.7385
2023-03-27T15:01:42.410Z,14.7692
2023-03-27T15:02:43.725Z,14.3385
2023-03-27T15:03:45.263Z,14.1692
2023-03-27T15:04:46.658Z,13.3692
2023-03-27T15:05:48.038Z,14.3538
2023-03-27T15:06:49.438Z,13.5538
2023-03-27T15:07:50.880Z,12.9077
2023-03-27T15:08:52.328Z,12.9846
2023-03-27T15:09:53.757Z,12.0769
2023-03-27T15:10:55.354Z,13.1385
2023-03-27T15:11:56.629Z,12.8308
2023-03-27T15:12:58.042Z,13.8923
2023-03-27T15:13:59.490Z,12.2769
2023-03-27T15:15:00.922Z,12.7692
2023-03-27T15:16:02.352Z,11.2308
2023-03-27T15:17:03.802Z,12.7077
2023-03-27T15:18:05.241Z,12.9231
2023-03-27T15:19:06.637Z,12.4923
2023-03-27T15:20:08.097Z,12.3538
2023-03-27T15:21:09.504Z,12.7846
2023-03-27T15:22:10.954Z,12.2308
2023-03-27T15:23:12.374Z,10.8615
2023-03-27T15:24:13.831Z,9.9538
2023-03-27T15:25:15.250Z,11.4462
2023-03-27T15:26:16.677Z,11.4308
2023-03-27T15:27:18.104Z,12.4769
2023-03-27T15:28:19.537Z,11.1846
2023-03-27T15:29:20.999Z,12.7385
2023-03-27T15:30:22.402Z,13.2923
2023-03-27T15:31:23.890Z,9.8769
2023-03-27T15:32:25.312Z,12.3538
2023-03-27T15:33:26.719Z,12.1385
2023-03-27T15:34:28.138Z,13.3231
2023-03-27T15:35:29.586Z,15.1077
2023-03-27T15:36:30.989Z,12.5231
2023-03-27T15:37:32.421Z,11.4462
2023-03-27T15:38:33.854Z,11.4462
2023-03-27T15:39:35.284Z,9.7385
2023-03-27T15:40:36.852Z,12.3385
2023-03-27T15:41:38.185Z,12.1231
2023-03-27T15:42:39.599Z,12.5846
2023-03-27T15:43:41.024Z,10.8923
2023-03-27T15:44:42.448Z,9.9692
2023-03-27T15:45:43.860Z,11.2308
2023-03-27T15:46:45.419Z,12.4462
2023-03-27T15:47:46.789Z,12.3846
2023-03-27T15:48:48.190Z,14.2923
2023-03-27T15:49:49.596Z,13.1692
2023-03-27T15:50:51.048Z,14.2308
2023-03-27T15:51:52.488Z,13.3692
2023-03-27T15:52:53.905Z,14.5846
2023-03-27T15:53:55.325Z,13.8769
2023-03-27T15:54:56.764Z,13.2769
2023-03-27T15:55:58.348Z,13.0923
2023-03-27T15:57:10.488Z,12.7538
2023-03-27T15:58:01.043Z,12.8500
2023-03-27T15:59:02.531Z,13.2154
2023-03-27T16:00:03.913Z,13.4154
2023-03-27T16:01:18.285Z,13.9538
2023-03-27T16:02:06.778Z,13.4000
2023-03-27T16:03:08.284Z,13.4308
2023-03-27T16:04:09.762Z,13.5231
2023-03-27T16:05:11.090Z,13.2923
2023-03-27T16:06:12.548Z,13.0308
2023-03-27T16:07:13.940Z,12.5385
2023-03-27T16:08:15.372Z,12.3077
2023-03-27T16:09:16.809Z,13.0308
2023-03-27T16:10:18.261Z,11.3692
2023-03-27T16:11:19.702Z,12.1846
2023-03-27T16:12:21.090Z,11.2000
2023-03-27T16:13:22.533Z,10.2769
2023-03-27T16:14:23.985Z,10.8769
2023-03-27T16:15:25.439Z,11.2923
2023-03-27T16:16:26.877Z,12.3077
2023-03-27T16:17:28.251Z,11.1231
2023-03-27T16:18:29.653Z,12.1538
2023-03-27T16:19:31.073Z,12.9538
2023-03-27T16:20:32.474Z,13.4154
2023-03-27T16:21:33.913Z,12.5231
2023-03-27T16:22:35.319Z,12.5692
2023-03-27T16:23:36.767Z,10.9385
2023-03-27T16:24:38.184Z,11.5231
2023-03-27T16:25:39.598Z,10.0000
2023-03-27T16:26:41.034Z,9.6154
2023-03-27T16:27:42.455Z,9.1846
2023-03-27T16:28:43.920Z,9.4000
2023-03-27T16:29:45.295Z,10.5692
2023-03-27T16:30:46.703Z,11.3077
2023-03-27T16:31:48.240Z,12.2000
2023-03-27T16:32:49.592Z,10.0462
2023-03-27T16:33:51.019Z,12.6923
2023-03-27T16:34:52.394Z,9.6769
2023-03-27T16:35:53.855Z,10.2923
2023-03-27T16:36:55.229Z,8.1231
2023-03-27T16:37:56.648Z,7.0154
2023-03-27T16:38:58.103Z,6.6000
2023-03-27T16:39:59.511Z,7.9231
2023-03-27T16:41:00.916Z,10.5846
2023-03-27T16:42:02.614Z,9.7692
2023-03-27T16:43:03.794Z,12.0462
2023-03-27T16:44:05.194Z,11.2154
2023-03-27T16:45:06.640Z,11.5538
2023-03-27T16:46:08.055Z,11.8923
2023-03-27T16:47:09.455Z,11.5385
2023-03-27T16:48:10.925Z,10.8615
2023-03-27T16:49:12.272Z,10.6154
2023-03-27T16:50:13.708Z,11.3077
2023-03-27T16:51:15.117Z,12.3692
2023-03-27T16:52:16.587Z,11.8923
2023-03-27T16:53:17.980Z,11.8308
2023-03-27T16:54:19.388Z,11.3231
2023-03-27T16:55:20.828Z,12.4154
2023-03-27T16:56:22.254Z,12.8769
2023-03-27T16:57:23.635Z,12.6308
2023-03-27T16:58:25.060Z,12.8769
2023-03-27T16:59:26.474Z,12.5077
2023-03-27T17:00:27.928Z,12.1846
2023-03-27T17:01:29.377Z,11.7231
2023-03-27T17:02:32.757Z,12.0462
2023-03-27T17:03:32.177Z,11.7538
2023-03-27T17:04:33.619Z,11.5077
2023-03-27T17:05:35.009Z,12.4308
2023-03-27T17:06:36.460Z,12.7692
2023-03-27T17:07:37.868Z,12.5692
2023-03-27T17:08:39.303Z,12.4462
2023-03-27T17:09:40.730Z,12.4308
2023-03-27T17:10:42.162Z,12.6769
2023-03-27T17:11:43.554Z,13.0462
2023-03-27T17:12:44.963Z,12.7385
2023-03-27T17:13:46.376Z,13.8462
2023-03-27T17:14:47.823Z,12.8000
2023-03-27T17:15:49.250Z,12.1538
2023-03-27T17:16:50.749Z,13.9538
2023-03-27T17:17:52.141Z,10.6769
2023-03-27T17:18:53.521Z,10.8769
2023-03-27T17:19:55.038Z,11.0000
2023-03-27T17:20:56.356Z,13.8462
2023-03-27T17:21:57.752Z,10.8769
2023-03-27T17:22:59.184Z,11.6154
2023-03-27T17:24:01.094Z,13.1231
2023-03-27T17:25:02.027Z,10.3231
2023-03-27T17:26:03.465Z,10.8154
2023-03-27T17:27:04.890Z,10.8615
2023-03-27T17:28:06.274Z,9.8308
2023-03-27T17:29:07.733Z,10.1385
2023-03-27T17:30:09.142Z,12.0308
2023-03-27T17:31:10.596Z,10.4615
2023-03-27T17:32:11.979Z,10.6769
2023-03-27T17:33:13.404Z,10.8923
2023-03-27T17:34:14.818Z,11.3385
2023-03-27T17:35:16.251Z,11.2769
2023-03-27T17:36:23.815Z,10.6000
2023-03-27T17:37:19.101Z,10.7167
2023-03-27T17:38:20.515Z,10.7077
2023-03-27T17:39:21.928Z,10.1231
2023-03-27T17:40:23.338Z,10.3077
2023-03-27T17:41:24.808Z,10.4308
2023-03-27T17:42:26.180Z,10.1077
2023-03-27T17:43:27.613Z,11.1077
2023-03-27T17:44:29.022Z,10.1385
2023-03-27T17:45:30.450Z,10.9692
2023-03-27T17:46:31.868Z,10.2308
2023-03-27T17:47:33.317Z,10.1692
2023-03-27T17:48:34.706Z,10.5538
2023-03-27T17:49:36.126Z,11.0308
2023-03-27T17:50:37.547Z,10.5077
2023-03-27T17:51:38.969Z,11.3692
2023-03-27T17:52:40.383Z,11.4769
2023-03-27T17:53:41.807Z,10.3231
2023-03-27T17:54:43.206Z,11.2462
2023-03-27T17:55:44.632Z,9.8154
2023-03-27T17:56:46.102Z,9.1385
2023-03-27T17:57:53.135Z,9.2769
2023-03-27T17:58:48.911Z,9.1833
2023-03-27T17:59:50.319Z,9.4462
2023-03-27T18:00:51.733Z,11.1692
2023-03-27T18:01:53.187Z,13.2462
2023-03-27T18:02:54.686Z,14.3538
2023-03-27T18:03:56.235Z,14.1231
2023-03-27T18:04:57.536Z,13.0769
2023-03-27T18:05:59.143Z,11.6769
2023-03-27T18:07:00.374Z,11.8154
2023-03-27T18:08:01.817Z,11.0769
2023-03-27T18:09:03.227Z,10.7231
2023-03-27T18:10:04.641Z,10.7077
2023-03-27T18:11:06.117Z,10.8154
2023-03-27T18:12:07.482Z,11.1385
2023-03-27T18:13:08.897Z,11.1846
2023-03-27T18:14:10.386Z,11.4000
2023-03-27T18:15:13.561Z,10.8769
2023-03-27T18:16:13.192Z,11.4308
2023-03-27T18:17:14.606Z,10.7538
2023-03-27T18:18:16.024Z,9.1846
2023-03-27T18:19:17.408Z,10.8923
2023-03-27T18:20:18.819Z,9.6308
2023-03-27T18:21:20.301Z,9.8462
2023-03-27T18:22:21.679Z,8.0615
2023-03-27T18:23:23.091Z,9.9385
2023-03-27T18:24:24.507Z,10.0615
2023-03-27T18:25:25.977Z,8.9385
2023-03-27T18:26:27.348Z,9.2769
2023-03-27T18:27:28.758Z,11.4923
2023-03-27T18:28:30.173Z,10.1538
2023-03-27T18:29:31.602Z,8.4462
2023-03-27T18:30:33.018Z,8.4923
2023-03-27T18:31:34.477Z,8.9692
2023-03-27T18:32:35.919Z,9.0615
2023-03-27T18:33:37.287Z,10.3231
2023-03-27T18:34:38.714Z,9.5077
2023-03-27T18:35:40.170Z,9.1077
2023-03-27T18:36:41.573Z,9.5846
2023-03-27T18:37:43.029Z,9.6769
2023-03-27T18:38:44.377Z,9.9385
2023-03-27T18:39:45.824Z,10.0154
2023-03-27T18:40:47.233Z,10.8769
2023-03-27T18:41:48.690Z,12.6000
2023-03-27T18:42:50.107Z,12.0923
2023-03-27T18:43:51.534Z,10.2308
2023-03-27T18:44:52.907Z,8.2154
2023-03-27T18:45:54.368Z,8.9692
2023-03-27T18:46:55.791Z,9.6000
2023-03-27T18:47:57.237Z,10.6923
2023-03-27T18:48:58.580Z,12.1077
2023-03-27T18:50:00.037Z,11.8308
2023-03-27T18:51:01.445Z,13.6923
2023-03-27T18:52:04.770Z,13.1385
2023-03-27T18:53:04.305Z,10.3231
2023-03-27T18:54:05.709Z,11.0615
2023-03-27T18:55:07.128Z,11.8154
2023-03-27T18:56:08.562Z,10.6000
2023-03-27T18:57:10.046Z,13.1385
2023-03-27T18:58:11.435Z,11.3231
2023-03-27T18:59:12.793Z,10.3077
2023-03-27T19:00:14.240Z,11.5077
2023-03-27T19:01:15.735Z,11.0615
2023-03-27T19:02:17.139Z,10.4308
2023-03-27T19:03:18.554Z,10.2923
2023-03-27T19:04:19.977Z,10.4923
2023-03-27T19:05:21.350Z,12.3077
2023-03-27T19:06:22.772Z,11.1846
2023-03-27T19:07:24.178Z,11.4154
2023-03-27T19:08:25.651Z,11.4154
2023-03-27T19:09:34.390Z,10.7385
2023-03-27T19:10:28.476Z,11.6667
2023-03-27T19:11:29.869Z,11.0615
2023-03-27T19:12:32.092Z,11.4154
2023-03-27T19:13:32.698Z,11.2923
2023-03-27T19:14:34.141Z,11.1692
2023-03-27T19:15:35.550Z,11.3385
2023-03-27T19:16:37.011Z,10.5538
2023-03-27T19:17:38.429Z,9.8923
2023-03-27T19:18:39.803Z,10.3692
2023-03-27T19:19:41.223Z,11.1077
2023-03-27T19:20:42.681Z,11.7846
2023-03-27T19:21:44.046Z,10.4308
2023-03-27T19:22:45.482Z,10.0615
2023-03-27T19:23:46.891Z,10.5231
2023-03-27T19:24:48.348Z,11.3385
2023-03-27T19:25:49.752Z,10.8769
2023-03-27T19:26:51.144Z,10.3077
2023-03-27T19:27:52.562Z,10.5385
2023-03-27T19:28:53.998Z,10.2000
2023-03-27T19:29:55.406Z,10.5692
2023-03-27T19:30:57.054Z,10.2000
2023-03-27T19:31:58.223Z,9.7538
2023-03-27T19:32:59.759Z,9.9692
2023-03-27T19:34:01.118Z,10.1846
2023-03-27T19:35:02.484Z,10.1231
2023-03-27T19:36:03.910Z,10.0462
2023-03-27T19:37:05.337Z,10.2923
2023-03-27T19:38:06.739Z,9.6923
2023-03-27T19:39:08.210Z,9.4923
2023-03-27T19:40:09.560Z,9.5077
2023-03-27T19:41:10.978Z,9.9231
2023-03-27T19:42:12.429Z,8.4615
2023-03-27T19:43:13.827Z,10.3692
2023-03-27T19:44:15.236Z,10.3385
2023-03-27T19:45:16.682Z,10.6462
2023-03-27T19:46:18.105Z,10.5846
2023-03-27T19:47:19.498Z,10.3385
2023-03-27T19:48:20.945Z,9.2769
2023-03-27T19:49:22.351Z,9.9385
2023-03-27T19:50:23.754Z,9.8000
2023-03-27T19:51:25.309Z,10.3692
2023-03-27T19:52:26.632Z,10.3692
2023-03-27T19:53:28.054Z,9.9385
2023-03-27T19:54:31.241Z,10.1538
2023-03-27T19:55:30.889Z,10.4000
2023-03-27T19:56:32.406Z,10.2462
2023-03-27T19:57:33.798Z,10.4923
2023-03-27T19:58:35.138Z,10.2000
2023-03-27T19:59:36.550Z,10.4615
2023-03-27T20:00:38.003Z,10.3077
2023-03-27T20:01:39.434Z,10.2154
2023-03-27T20:02:40.889Z,10.3538
2023-03-27T20:03:42.338Z,10.3538
2023-03-27T20:04:43.650Z,10.1538
2023-03-27T20:05:45.045Z,10.2154
2023-03-27T20:06:46.481Z,9.9077
2023-03-27T20:07:47.892Z,10.4154
2023-03-27T20:08:49.309Z,10.7385
2023-03-27T20:09:50.735Z,10.3846
2023-03-27T20:10:52.121Z,10.1846
2023-03-27T20:11:53.542Z,9.5077
2023-03-27T20:12:54.984Z,10.1231
2023-03-27T20:13:57.165Z,10.5385
2023-03-27T20:15:10.980Z,9.8462
2023-03-27T20:15:59.393Z,10.9167
2023-03-27T20:17:00.635Z,10.6615
2023-03-27T20:18:02.140Z,10.6923
2023-03-27T20:19:04.012Z,10.6769
2023-03-27T20:20:04.920Z,10.9231
2023-03-27T20:21:06.323Z,10.3692
2023-03-27T20:22:07.782Z,10.6769
2023-03-27T20:23:09.176Z,9.8154
2023-03-27T20:24:10.643Z,10.0000
2023-03-27T20:25:12.007Z,9.7077
2023-03-27T20:26:13.480Z,10.0000
2023-03-27T20:27:14.858Z,10.6308
2023-03-27T20:28:16.269Z,10.1846
2023-03-27T20:29:17.681Z,10.6000
2023-03-27T20:30:19.101Z,10.0462
2023-03-27T20:31:20.678Z,10.3077
2023-03-27T20:32:21.960Z,10.5077
2023-03-27T20:33:23.343Z,9.9231
2023-03-27T20:34:24.789Z,10.3077
2023-03-27T20:35:26.248Z,9.9692
2023-03-27T20:36:27.606Z,10.4833
2023-03-27T20:37:29.030Z,9.8615
2023-03-27T20:38:30.459Z,10.4154
2023-03-27T20:39:31.862Z,10.4000
2023-03-27T20:40:42.533Z,10.0308
2023-03-27T20:41:34.703Z,10.6833
2023-03-27T20:42:36.140Z,10.3692
2023-03-27T20:43:37.559Z,10.1538
2023-03-27T20:44:39.036Z,10.1077
2023-03-27T20:45:40.396Z,10.5077
2023-03-27T20:46:41.862Z,9.9385
2023-03-27T20:47:43.315Z,10.5846
2023-03-27T20:48:44.683Z,10.3231
2023-03-27T20:49:46.097Z,10.5333
2023-03-27T20:50:47.530Z,10.4308
2023-03-27T20:51:48.937Z,10.5692
2023-03-27T20:52:50.354Z,10.8462
2023-03-27T20:53:51.798Z,11.0308
2023-03-27T20:54:53.205Z,10.6923
2023-03-27T20:55:59.824Z,10.5385
2023-03-27T20:56:56.084Z,10.0833
2023-03-27T20:57:57.465Z,10.0923
2023-03-27T20:58:58.892Z,10.6000
2023-03-27T21:00:00.275Z,10.1385
2023-03-27T21:01:01.777Z,10.5846
2023-03-27T21:02:03.169Z,10.5846
2023-03-27T21:03:04.616Z,10.7538
2023-03-27T21:04:05.982Z,10.6308
2023-03-27T21:05:07.409Z,10.8000
2023-03-27T21:06:08.823Z,10.7385
2023-03-27T21:07:10.261Z,10.7231
2023-03-27T21:08:11.667Z,10.1385
2023-03-27T21:09:13.075Z,10.4462
2023-03-27T21:10:14.483Z,9.8462
2023-03-27T21:11:15.925Z,10.6308
2023-03-27T21:12:17.320Z,10.5538
2023-03-27T21:13:18.774Z,10.7846
2023-03-27T21:14:20.171Z,10.8154
2023-03-27T21:15:21.589Z,10.3846
2023-03-27T21:16:23.095Z,10.1077
2023-03-27T21:17:24.431Z,10.5385
2023-03-27T21:18:25.831Z,10.4769
2023-03-27T21:19:27.267Z,9.9538
2023-03-27T21:20:28.674Z,10.5692
2023-03-27T21:21:30.151Z,10.6769
2023-03-27T21:22:31.478Z,10.4000
2023-03-27T21:23:32.906Z,10.3231
2023-03-27T21:24:34.342Z,10.4923
2023-03-27T21:25:35.788Z,10.7385
2023-03-27T21:26:37.171Z,10.7846
2023-03-27T21:27:38.592Z,10.2462
2023-03-27T21:28:40.001Z,10.0462
2023-03-27T21:29:41.441Z,10.1692
2023-03-27T21:30:47.026Z,10.5692
2023-03-27T21:31:44.299Z,10.9333
2023-03-27T21:32:45.735Z,10.0462
2023-03-27T21:33:47.132Z,10.3692
2023-03-27T21:34:48.532Z,10.8769
2023-03-27T21:35:49.983Z,10.5385
2023-03-27T21:36:51.448Z,10.6154
2023-03-27T21:37:52.823Z,10.5846
2023-03-27T21:38:54.229Z,10.6308
2023-03-27T21:39:55.688Z,11.5538
2023-03-27T21:40:57.094Z,10.7538
2023-03-27T21:41:58.494Z,9.9846
2023-03-27T21:42:59.926Z,10.8154
2023-03-27T21:44:01.339Z,10.1231
2023-03-27T21:45:02.733Z,9.7077
2023-03-27T21:46:04.254Z,10.6923
2023-03-27T21:47:05.588Z,10.6462
2023-03-27T21:48:07.065Z,9.9538
2023-03-27T21:49:08.426Z,10.3846
2023-03-27T21:50:09.864Z,9.6462
2023-03-27T21:51:11.433Z,10.0462
2023-03-27T21:52:12.774Z,10.8154
2023-03-27T21:53:14.114Z,11.5846
2023-03-27T21:54:15.522Z,12.2154
2023-03-27T21:55:16.928Z,11.0154
2023-03-27T21:56:18.393Z,10.3231
2023-03-27T21:57:19.863Z,11.7538
2023-03-27T21:58:21.207Z,11.2462
2023-03-27T21:59:22.610Z,11.0308
2023-03-27T22:00:24.070Z,11.7077
2023-03-27T22:01:25.473Z,12.0308
2023-03-27T22:02:26.979Z,11.7692
2023-03-27T22:03:28.334Z,11.9692
2023-03-27T22:04:29.717Z,11.9231
2023-03-27T22:05:31.212Z,12.0154
2023-03-27T22:06:32.689Z,12.1385
2023-03-27T22:07:34.060Z,12.2615
2023-03-27T22:08:35.499Z,11.9077
2023-03-27T22:09:36.881Z,11.5231
2023-03-27T22:10:38.326Z,11.7538
2023-03-27T22:11:39.737Z,12.0154
2023-03-27T22:12:41.185Z,11.7692
2023-03-27T22:13:42.582Z,12.0308
2023-03-27T22:14:44.013Z,11.7846
2023-03-27T22:15:45.475Z,11.6308
2023-03-27T22:16:46.869Z,11.5538
2023-03-27T22:17:48.258Z,11.8462
2023-03-27T22:18:49.688Z,12.1231
2023-03-27T22:19:51.097Z,12.1231
2023-03-27T22:20:52.542Z,11.6154
2023-03-27T22:21:53.951Z,11.8769
2023-03-27T22:22:55.350Z,11.9846
2023-03-27T22:23:56.795Z,11.8769
2023-03-27T22:24:58.241Z,11.7538
2023-03-27T22:25:59.750Z,12.0000
2023-03-27T22:27:01.077Z,11.6308
2023-03-27T22:28:02.496Z,11.8154